Time;durP1;ratioP1;P1;durP2;ratioP2;P2;SDS_P1;SDS_P2;PMS_P1;PMS_P2;Temp;Humidity;BMP_temperature;BMP_pressure;BME280_temperature;BME280_humidity;BME280_pressure;Samples;Min_cycle;Max_cycle;Signal;HPM_P1;HPM_P2
2022/09/27 00:00:32;;;;;;;6.13;1.43;;;;;;;13.58;81.64;99141.47;5054627;28;20496;-69
2022/09/27 00:02:58;;;;;;;3.80;1.30;;;;;;;13.50;81.44;99132.38;5054363;28;20462;-70
2022/09/27 00:05:25;;;;;;;4.30;1.20;;;;;;;13.43;81.33;99126.00;5053907;28;20442;-69
2022/09/27 00:07:51;;;;;;;5.03;1.43;;;;;;;13.41;82.03;99120.13;5054527;28;20481;-70
2022/09/27 00:10:18;;;;;;;4.87;1.43;;;;;;;13.40;83.05;99123.97;5054567;28;20434;-69
2022/09/27 00:12:47;;;;;;;8.63;1.33;;;;;;;13.41;83.31;99118.19;5054562;28;20447;-69
2022/09/27 00:15:13;;;;;;;4.93;1.87;;;;;;;13.40;83.53;99113.88;5053928;28;20974;-69
2022/09/27 00:17:40;;;;;;;3.73;1.03;;;;;;;13.45;83.40;99107.38;5054341;28;20479;-70
2022/09/27 00:20:08;;;;;;;6.77;1.63;;;;;;;13.46;82.98;99108.94;5054253;28;20493;-69
2022/09/27 00:22:35;;;;;;;3.30;1.33;;;;;;;13.51;82.88;99116.84;5053499;28;20449;-69
2022/09/27 00:25:04;;;;;;;4.70;1.13;;;;;;;13.51;82.46;99111.41;5054089;28;20446;-69
2022/09/27 00:27:31;;;;;;;4.00;1.57;;;;;;;13.49;82.56;99102.81;5054144;28;20481;-69
2022/09/27 00:29:59;;;;;;;3.90;1.03;;;;;;;13.46;83.15;99106.22;5054139;28;20442;-69
2022/09/27 00:32:25;;;;;;;6.57;1.70;;;;;;;13.43;83.38;99099.59;5054031;28;20445;-69
2022/09/27 00:34:52;;;;;;;4.40;1.47;;;;;;;13.45;82.45;99100.00;5054064;28;20431;-69
2022/09/27 00:37:18;;;;;;;3.37;1.07;;;;;;;13.49;82.04;99098.16;5053957;28;20473;-69
2022/09/27 00:39:45;;;;;;;3.00;0.80;;;;;;;13.49;81.77;99102.81;5053939;28;20497;-69
2022/09/27 00:42:12;;;;;;;4.50;1.60;;;;;;;13.46;82.18;99090.72;5053617;28;20533;-69
2022/09/27 00:45:03;;;;;;;3.60;1.30;;;;;;;13.42;81.96;99080.91;5053895;28;20450;-69
2022/09/27 00:47:35;;;;;;;3.70;1.20;;;;;;;13.34;82.03;99090.84;5053474;28;20463;-70
2022/09/27 00:50:09;;;;;;;4.63;1.40;;;;;;;13.32;82.74;99085.75;5053892;28;20427;-70
2022/09/27 00:52:43;;;;;;;4.63;1.30;;;;;;;13.34;82.48;99083.47;5053823;28;20426;-70
2022/09/27 00:55:14;;;;;;;3.50;0.90;;;;;;;13.37;82.32;99071.88;5053741;28;20430;-70
2022/09/27 00:57:44;;;;;;;3.63;1.13;;;;;;;13.43;82.82;99080.53;5053642;28;20477;-70
2022/09/27 01:00:14;;;;;;;3.80;1.23;;;;;;;13.44;81.92;99065.78;5053285;28;20478;-70
2022/09/27 01:02:45;;;;;;;5.47;1.13;;;;;;;13.44;81.56;99065.00;5053609;28;20454;-70
2022/09/27 01:05:13;;;;;;;4.20;1.40;;;;;;;13.43;81.70;99058.00;5053552;28;20434;-70
2022/09/27 01:07:39;;;;;;;4.30;1.37;;;;;;;13.41;82.33;99054.84;5053381;28;20474;-70
2022/09/27 01:10:07;;;;;;;3.53;1.10;;;;;;;13.37;82.99;99055.56;5053506;28;20438;-70
2022/09/27 01:12:45;;;;;;;3.70;1.40;;;;;;;13.43;82.15;99052.56;5053417;28;20457;-70
2022/09/27 01:15:23;;;;;;;3.53;1.10;;;;;;;13.44;81.39;99056.84;5052858;28;20508;-70
2022/09/27 01:18:03;;;;;;;3.50;1.20;;;;;;;13.40;82.11;99039.66;5053255;28;20461;-70
2022/09/27 01:20:57;;;;;;;3.27;1.00;;;;;;;13.40;81.54;99045.09;5053324;28;20841;-70
2022/09/27 01:23:44;;;;;;;4.20;1.30;;;;;;;13.41;82.75;99041.25;5052244;28;20434;-70
2022/09/27 01:26:16;;;;;;;3.10;0.70;;;;;;;13.45;82.23;99034.72;5053244;28;20480;-69
2022/09/27 01:28:57;;;;;;;3.17;1.00;;;;;;;13.46;81.13;99043.66;5053269;28;20522;-69
2022/09/27 01:31:32;;;;;;;4.07;1.07;;;;;;;13.42;82.06;99040.91;5052949;28;20509;-70
2022/09/27 01:34:04;;;;;;;3.60;1.43;;;;;;;13.42;82.59;99026.50;5053208;28;20488;-69
2022/09/27 01:36:41;;;;;;;3.40;1.03;;;;;;;13.43;81.72;99028.88;5053055;28;20466;-70
2022/09/27 01:39:27;;;;;;;3.67;1.30;;;;;;;13.43;81.42;99026.16;5053154;28;20441;-70
2022/09/27 01:42:02;;;;;;;4.17;1.83;;;;;;;13.45;81.89;99025.78;5053185;28;20427;-69
2022/09/27 01:44:33;;;;;;;3.60;1.03;;;;;;;13.40;81.58;99024.13;5053111;28;20429;-68
2022/09/27 01:47:05;;;;;;;4.27;1.50;;;;;;;13.43;81.30;99011.75;5053030;28;20458;-70
2022/09/27 01:49:39;;;;;;;3.60;1.00;;;;;;;13.40;82.33;99013.25;5053040;28;20419;-69
2022/09/27 01:52:09;;;;;;;4.63;1.03;;;;;;;13.40;81.83;99015.19;5053074;28;20418;-69
2022/09/27 01:54:41;;;;;;;10.93;1.27;;;;;;;13.42;81.05;99005.53;5053057;28;20426;-69
2022/09/27 01:57:11;;;;;;;4.00;1.17;;;;;;;13.43;81.52;99006.31;5052639;28;20821;-69
2022/09/27 01:59:44;;;;;;;4.23;1.23;;;;;;;13.44;81.66;99002.44;5052559;28;21036;-69
2022/09/27 02:02:14;;;;;;;3.20;1.00;;;;;;;13.47;81.94;98996.31;5053004;28;20426;-69
2022/09/27 02:04:44;;;;;;;5.40;1.53;;;;;;;13.42;82.47;98999.31;5052994;28;20438;-69
2022/09/27 02:07:16;;;;;;;4.23;1.00;;;;;;;13.44;82.45;98983.41;5052587;28;20465;-69
2022/09/27 02:09:47;;;;;;;3.37;1.00;;;;;;;13.49;82.68;98978.47;5052893;28;20419;-69
2022/09/27 02:12:20;;;;;;;3.30;0.70;;;;;;;13.50;82.84;98971.09;5052885;28;20418;-69
2022/09/27 02:14:50;;;;;;;3.30;1.00;;;;;;;13.50;82.51;98966.47;5052463;28;20426;-69
2022/09/27 02:17:27;;;;;;;4.07;1.30;;;;;;;13.51;82.20;98976.19;5052747;28;20462;-69
2022/09/27 02:20:01;;;;;;;4.33;1.20;;;;;;;13.59;81.40;98977.09;5052736;28;20437;-69
2022/09/27 02:22:35;;;;;;;3.83;0.80;;;;;;;13.57;82.17;98973.94;5052678;28;20433;-74
2022/09/27 02:25:27;;;;;;;3.80;1.10;;;;;;;13.55;82.68;98965.38;5052719;28;20466;-74
2022/09/27 02:28:00;;;;;;;3.70;1.10;;;;;;;13.57;82.16;98968.50;4954343;28;20477;-70
2022/09/27 02:30:27;;;;;;;3.77;1.07;;;;;;;13.58;82.37;98954.53;4955965;29;20427;-70
2022/09/27 02:32:55;;;;;;;3.00;0.80;;;;;;;13.60;82.70;98963.13;4956083;29;20455;-69
2022/09/27 02:35:28;;;;;;;3.30;0.80;;;;;;;13.63;82.07;98953.44;4955992;29;20447;-70
2022/09/27 02:37:55;;;;;;;7.60;1.40;;;;;;;13.61;82.68;98958.47;4955906;29;20506;-70
2022/09/27 02:40:23;;;;;;;3.17;0.93;;;;;;;13.63;81.08;98951.53;4955837;29;20489;-70
2022/09/27 02:42:50;;;;;;;3.60;1.00;;;;;;;13.60;81.19;98946.81;4955822;29;20454;-70
2022/09/27 02:45:18;;;;;;;5.23;1.00;;;;;;;13.60;81.09;98941.38;4955797;29;20813;-70
2022/09/27 02:47:59;;;;;;;3.50;0.90;;;;;;;13.59;81.79;98945.25;4955711;29;20474;-70
2022/09/27 02:50:47;;;;;;;4.20;1.40;;;;;;;13.61;82.98;98942.94;4955785;29;20531;-70
2022/09/27 02:53:25;;;;;;;4.33;1.40;;;;;;;13.63;82.80;98950.72;4955699;29;20454;-70
2022/09/27 02:56:01;;;;;;;4.13;1.10;;;;;;;13.61;84.00;98934.78;4955647;29;20442;-70
2022/09/27 02:58:46;;;;;;;3.33;0.87;;;;;;;13.49;83.17;98937.66;4998832;28;21281;-70
2022/09/27 03:01:19;;;;;;;3.47;1.10;;;;;;;13.43;83.88;98935.59;5055815;28;20469;-70
2022/09/27 03:03:52;;;;;;;3.87;1.10;;;;;;;13.47;83.55;98939.19;5055918;28;20449;-70
2022/09/27 03:06:22;;;;;;;3.73;1.00;;;;;;;13.40;84.40;98941.75;5055706;28;20435;-70
2022/09/27 03:08:49;;;;;;;3.73;1.10;;;;;;;13.37;85.15;98933.19;5057063;28;20460;-70
2022/09/27 03:11:16;;;;;;;3.30;0.90;;;;;;;13.37;84.49;98933.19;5055705;28;20438;-70
2022/09/27 03:13:44;;;;;;;4.20;1.23;;;;;;;13.40;86.01;98937.09;5055632;28;20450;-70
2022/09/27 03:16:10;;;;;;;3.03;0.63;;;;;;;13.38;87.82;98923.09;5055035;28;20982;-70
2022/09/27 03:18:38;;;;;;;3.90;1.17;;;;;;;13.38;87.27;98923.09;5055571;28;20454;-70
2022/09/27 03:21:06;;;;;;;3.83;1.10;;;;;;;13.34;86.66;98923.03;5055431;28;20486;-69
2022/09/27 03:23:32;;;;;;;4.90;1.33;;;;;;;13.22;87.94;98925.06;5055420;28;20442;-69
2022/09/27 03:25:59;;;;;;;3.77;0.97;;;;;;;13.16;87.36;98915.66;5055424;28;20438;-69
2022/09/27 03:28:28;;;;;;;4.60;1.27;;;;;;;13.17;87.71;98918.00;5055307;28;20493;-69
2022/09/27 03:30:55;;;;;;;3.70;1.40;;;;;;;13.20;87.91;98916.50;5055018;28;20939;-69
2022/09/27 03:33:21;;;;;;;3.37;0.93;;;;;;;13.24;89.27;98918.19;5055304;28;20799;-69
2022/09/27 03:35:48;;;;;;;4.00;1.37;;;;;;;13.18;91.04;98908.69;5055289;28;20433;-69
2022/09/27 03:38:16;;;;;;;3.43;1.00;;;;;;;13.21;89.19;98920.78;5054709;28;20462;-69
2022/09/27 03:40:43;;;;;;;3.50;1.03;;;;;;;13.12;90.63;98910.13;5054989;28;20477;-69
2022/09/27 03:43:09;;;;;;;3.50;1.00;;;;;;;13.14;90.62;98910.56;5055102;28;20477;-69
2022/09/27 03:45:36;;;;;;;3.80;1.20;;;;;;;13.08;92.13;98903.84;5055063;28;20438;-69
2022/09/27 03:48:03;;;;;;;3.67;1.10;;;;;;;13.04;90.76;98902.97;5054960;28;20466;-69
2022/09/27 03:50:29;;;;;;;3.30;0.83;;;;;;;13.05;91.75;98904.56;5055028;28;20813;-69
2022/09/27 03:52:56;;;;;;;3.47;1.20;;;;;;;13.01;93.80;98898.25;5054627;28;20939;-69
2022/09/27 03:55:24;;;;;;;9.37;1.60;;;;;;;12.96;94.29;98891.19;5054917;28;20453;-69
2022/09/27 03:57:50;;;;;;;4.30;1.30;;;;;;;12.88;95.59;98886.75;5054451;28;20473;-69
2022/09/27 04:00:17;;;;;;;4.33;1.43;;;;;;;12.90;95.10;98889.91;5054703;28;20449;-69
2022/09/27 04:02:44;;;;;;;4.23;1.10;;;;;;;12.84;93.87;98883.19;5054729;28;20472;-69
2022/09/27 04:05:11;;;;;;;3.67;1.20;;;;;;;12.83;96.31;98881.59;5054669;28;20434;-69
2022/09/27 04:07:38;;;;;;;3.77;1.20;;;;;;;12.80;95.26;98885.84;5054492;28;20458;-70
2022/09/27 04:10:05;;;;;;;5.53;1.30;;;;;;;12.85;96.09;98887.47;5054632;28;20474;-69
2022/09/27 04:12:33;;;;;;;3.93;1.40;;;;;;;12.81;94.87;98873.81;5054524;28;20438;-69
2022/09/27 04:15:00;;;;;;;5.63;1.73;;;;;;;12.80;95.57;98874.97;5054320;28;20446;-68
2022/09/27 04:17:26;;;;;;;3.30;1.00;;;;;;;12.83;95.62;98876.16;5054402;28;20508;-69
2022/09/27 04:19:53;;;;;;;4.90;1.83;;;;;;;12.85;95.15;98866.53;5054419;28;20439;-69
2022/09/27 04:22:19;;;;;;;4.20;1.60;;;;;;;12.84;95.97;98867.69;5054238;28;20602;-69
2022/09/27 04:24:46;;;;;;;4.23;1.33;;;;;;;12.82;95.52;98869.16;5054302;28;20465;-69
2022/09/27 04:27:12;;;;;;;5.83;1.67;;;;;;;12.76;94.70;98860.53;5053897;28;20462;-69
2022/09/27 04:29:42;;;;;;;4.00;1.40;;;;;;;12.68;94.62;98872.38;5054177;28;20446;-69
2022/09/27 04:32:08;;;;;;;4.10;1.63;;;;;;;12.68;95.75;98872.38;5053787;28;20443;-69
2022/09/27 04:37:19;;;;;;;6.70;1.93;;;;;;;12.71;95.37;98874.41;5053786;28;20450;-69
2022/09/27 04:39:45;;;;;;;3.70;1.33;;;;;;;12.73;95.85;98874.81;5053355;28;20935;-70
2022/09/27 04:42:12;;;;;;;5.40;1.30;;;;;;;12.70;97.93;98872.81;5053490;28;20497;-69
2022/09/27 04:44:40;;;;;;;3.93;1.30;;;;;;;12.69;97.33;98876.66;5053661;28;20465;-69
2022/09/27 04:47:06;;;;;;;4.00;1.53;;;;;;;12.68;98.22;98868.88;5053159;28;20485;-70
2022/09/27 04:49:33;;;;;;;3.80;1.20;;;;;;;12.67;99.19;98872.75;5052989;28;20446;-69
2022/09/27 04:51:59;;;;;;;4.50;1.30;;;;;;;12.68;98.99;98877.03;5053348;28;20469;-69
2022/09/27 04:54:26;;;;;;;4.53;1.43;;;;;;;12.68;99.58;98871.59;5053567;28;20442;-69
2022/09/27 04:56:52;;;;;;;9.33;1.73;;;;;;;12.60;99.34;98873.38;5053678;28;20462;-69
2022/09/27 04:59:19;;;;;;;4.77;1.77;;;;;;;12.56;99.47;98870.59;5053683;28;20438;-69
2022/09/27 05:01:49;;;;;;;4.50;1.57;;;;;;;12.56;100.00;98872.50;5053585;28;20482;-70
2022/09/27 05:04:15;;;;;;;4.70;1.60;;;;;;;12.51;100.00;98870.88;5053576;28;20443;-69
2022/09/27 05:06:42;;;;;;;3.63;0.90;;;;;;;12.52;100.00;98868.94;5052406;28;20470;-69
2022/09/27 05:09:08;;;;;;;4.93;1.50;;;;;;;12.47;100.00;98866.50;5053127;28;20940;-69
2022/09/27 05:11:36;;;;;;;4.03;1.57;;;;;;;12.50;100.00;98874.72;5053719;28;20449;-69
2022/09/27 05:14:03;;;;;;;4.63;1.50;;;;;;;12.49;100.00;98875.09;5053592;28;20485;-69
2022/09/27 05:16:30;;;;;;;3.70;1.40;;;;;;;12.42;100.00;98869.50;5053276;28;20485;-69
2022/09/27 05:18:57;;;;;;;5.70;1.63;;;;;;;12.36;100.00;98869.78;5053341;28;20446;-69
2022/09/27 05:21:24;;;;;;;4.20;1.60;;;;;;;12.37;100.00;98876.78;5053616;28;20481;-69
2022/09/27 05:23:51;;;;;;;5.60;1.93;;;;;;;12.37;100.00;98871.34;5053273;28;20524;-69
2022/09/27 05:26:17;;;;;;;4.90;1.80;;;;;;;12.38;100.00;98877.56;5053315;28;20446;-69
2022/09/27 05:28:46;;;;;;;5.50;1.83;;;;;;;12.33;100.00;98867.00;5052090;28;20973;-70
2022/09/27 05:31:13;;;;;;;4.83;1.73;;;;;;;12.37;100.00;98865.91;5064876;28;20951;-69
2022/09/27 05:33:39;;;;;;;5.13;2.07;;;;;;;12.35;100.00;98870.94;5062798;28;20465;-69
2022/09/27 05:36:09;;;;;;;4.33;1.40;;;;;;;12.33;100.00;98875.91;5053088;28;20451;-70
2022/09/27 05:38:35;;;;;;;3.70;1.50;;;;;;;12.31;100.00;98864.63;5053099;28;20852;-69
2022/09/27 05:41:02;;;;;;;6.70;1.43;;;;;;;12.26;100.00;98866.81;5053067;28;20616;-69
2022/09/27 05:43:31;;;;;;;9.60;2.60;;;;;;;12.17;100.00;98867.00;5053112;28;20457;-70
2022/09/27 05:45:57;;;;;;;3.90;1.60;;;;;;;12.19;100.00;98875.59;5053049;28;20525;-69
2022/09/27 05:48:24;;;;;;;3.70;1.40;;;;;;;12.23;100.00;98864.84;5052671;28;20983;-69
2022/09/27 05:50:50;;;;;;;3.53;1.40;;;;;;;12.22;100.00;98869.47;5053579;28;20442;-69
2022/09/27 05:53:18;;;;;;;4.00;1.27;;;;;;;12.30;100.00;98864.97;5053137;28;20449;-69
2022/09/27 05:55:44;;;;;;;4.23;1.70;;;;;;;12.27;100.00;98866.50;5053023;28;20447;-69
2022/09/27 05:58:12;;;;;;;4.73;2.00;;;;;;;12.26;100.00;98867.63;5052985;28;20533;-72
2022/09/27 06:00:39;;;;;;;4.60;2.00;;;;;;;12.28;100.00;98868.06;5053065;28;20481;-75
2022/09/27 06:03:06;;;;;;;4.17;2.07;;;;;;;12.29;100.00;98864.19;5056886;28;20486;-69
2022/09/27 06:05:36;;;;;;;5.33;1.73;;;;;;;12.28;100.00;98868.06;5056822;28;20449;-70
2022/09/27 06:08:06;;;;;;;5.50;1.77;;;;;;;12.26;100.00;98867.63;5056675;28;20461;-70
2022/09/27 06:10:34;;;;;;;4.93;1.67;;;;;;;12.29;100.00;98857.97;5056890;28;20446;-70
2022/09/27 06:13:01;;;;;;;5.30;2.03;;;;;;;12.25;100.00;98866.03;5056824;28;20438;-70
2022/09/27 06:15:28;;;;;;;5.60;1.90;;;;;;;12.29;100.00;98858.75;5056259;28;20556;-69
2022/09/27 06:17:54;;;;;;;4.00;1.47;;;;;;;12.28;100.00;98861.84;5056659;28;20454;-69
2022/09/27 06:20:21;;;;;;;4.27;1.40;;;;;;;12.29;100.00;98863.41;5056580;28;20503;-70
2022/09/27 06:22:47;;;;;;;6.27;1.70;;;;;;;12.46;100.00;98863.00;5056526;28;20477;-69
2022/09/27 06:25:14;;;;;;;4.47;1.80;;;;;;;12.48;100.00;98865.34;5056506;28;20442;-70
2022/09/27 06:27:42;;;;;;;4.43;1.87;;;;;;;12.50;100.00;98857.66;5056414;28;20458;-70
2022/09/27 06:30:11;;;;;;;5.23;1.60;;;;;;;12.54;100.00;98858.53;5056200;28;20968;-70
2022/09/27 06:32:38;;;;;;;4.00;1.50;;;;;;;12.47;100.00;98863.78;5056448;28;20528;-70
2022/09/27 06:35:05;;;;;;;4.13;1.60;;;;;;;12.48;100.00;98866.13;5056406;28;20441;-70
2022/09/27 06:37:32;;;;;;;5.90;1.67;;;;;;;12.50;100.00;98872.03;5056159;28;20564;-70
2022/09/27 06:39:59;;;;;;;6.00;2.33;;;;;;;12.52;100.00;98867.00;5056111;28;20450;-70
2022/09/27 06:42:28;;;;;;;4.53;1.90;;;;;;;12.45;100.00;98866.09;5056154;28;20490;-70
2022/09/27 06:44:55;;;;;;;4.93;1.53;;;;;;;12.47;100.00;98869.22;5056098;28;20438;-69
2022/09/27 06:47:22;;;;;;;5.93;1.90;;;;;;;12.48;100.00;98863.41;5055997;28;20473;-70
2022/09/27 06:49:49;;;;;;;4.73;2.30;;;;;;;12.44;100.00;98854.44;5069258;28;20472;-70
2022/09/27 06:52:15;;;;;;;3.97;1.53;;;;;;;12.47;100.00;98863.78;5066797;28;20498;-69
2022/09/27 06:54:42;;;;;;;6.40;2.20;;;;;;;12.44;100.00;98857.16;5059256;28;20824;-68
2022/09/27 06:57:08;;;;;;;5.00;1.77;;;;;;;12.40;100.00;98866.38;5055954;28;20465;-69
2022/09/27 07:02:20;;;;;;;4.20;1.50;;;;;;;12.34;100.00;98869.34;5055662;28;20465;-69
2022/09/27 07:04:46;;;;;;;4.07;1.53;;;;;;;12.40;100.00;98877.22;5055775;28;20477;-69
2022/09/27 07:07:13;;;;;;;3.70;1.53;;;;;;;12.34;100.00;98877.47;5055795;28;20461;-69
2022/09/27 07:09:40;;;;;;;5.60;1.90;;;;;;;12.34;100.00;98877.47;5055413;28;20869;-68
2022/09/27 07:12:06;;;;;;;5.07;2.03;;;;;;;12.35;100.00;98873.66;5055703;28;20444;-69
2022/09/27 07:14:34;;;;;;;5.10;1.70;;;;;;;12.40;100.00;98880.72;5055018;28;20442;-69
2022/09/27 07:17:00;;;;;;;3.83;1.20;;;;;;;12.44;100.00;98878.06;5055249;28;20540;-69
2022/09/27 07:19:28;;;;;;;7.13;1.70;;;;;;;12.44;100.00;98878.06;5055618;28;20810;-69
2022/09/27 07:21:54;;;;;;;4.10;1.53;;;;;;;12.43;100.00;98873.78;5055425;28;20492;-69
2022/09/27 07:24:21;;;;;;;4.20;1.50;;;;;;;12.47;100.00;98875.44;5055529;28;20809;-69
2022/09/27 07:26:48;;;;;;;6.03;1.93;;;;;;;12.55;100.00;98870.94;5055696;28;20458;-68
2022/09/27 07:29:15;;;;;;;5.43;1.77;;;;;;;12.60;100.00;98876.88;5055431;28;20442;-68
2022/09/27 07:31:42;;;;;;;4.27;1.30;;;;;;;12.62;100.00;98877.31;5055058;28;20833;-69
2022/09/27 07:34:11;;;;;;;4.23;1.63;;;;;;;12.70;100.00;98880.94;5055263;28;20480;-69
2022/09/27 07:36:38;;;;;;;4.73;1.70;;;;;;;12.76;100.00;98881.47;5055241;28;20490;-69
2022/09/27 07:39:05;;;;;;;4.33;1.43;;;;;;;12.68;100.00;98877.03;5055274;28;20816;-69
2022/09/27 07:41:32;;;;;;;4.17;1.53;;;;;;;12.72;100.00;98881.41;5055071;28;20442;-68
2022/09/27 07:43:58;;;;;;;4.37;1.43;;;;;;;12.70;100.00;98880.16;5055116;28;20488;-69
2022/09/27 07:46:25;;;;;;;5.40;1.77;;;;;;;12.72;100.00;98878.69;5054553;28;20454;-69
2022/09/27 07:48:52;;;;;;;4.30;1.80;;;;;;;12.75;100.00;98886.13;5054718;28;20947;-71
2022/09/27 07:51:18;;;;;;;4.33;1.57;;;;;;;12.80;100.00;98877.69;5054977;28;20445;-70
2022/09/27 07:53:46;;;;;;;5.20;1.90;;;;;;;12.78;100.00;98881.88;5054894;28;20438;-69
2022/09/27 07:56:13;;;;;;;4.40;1.60;;;;;;;12.73;100.00;98880.25;5054761;28;20828;-69
2022/09/27 07:58:39;;;;;;;5.17;1.70;;;;;;;12.73;100.00;98876.75;5054680;28;20438;-69
2022/09/27 08:01:06;;;;;;;6.27;1.70;;;;;;;12.82;100.00;98869.16;5054753;28;20446;-69
2022/09/27 08:03:33;;;;;;;4.47;1.60;;;;;;;12.90;100.00;98875.53;5054623;28;20485;-69
2022/09/27 08:06:02;;;;;;;3.80;1.33;;;;;;;13.00;100.00;98883.88;5054655;28;20482;-69
2022/09/27 08:08:29;;;;;;;5.87;2.50;;;;;;;13.05;100.00;98877.38;5054557;28;20885;-69
2022/09/27 08:10:57;;;;;;;3.87;1.33;;;;;;;13.11;100.00;98882.16;5054561;28;20449;-69
2022/09/27 08:13:24;;;;;;;3.80;1.30;;;;;;;13.23;100.00;98883.16;5054561;28;20438;-69
2022/09/27 08:15:51;;;;;;;4.07;1.70;;;;;;;13.19;100.00;98887.72;5054043;28;20463;-69
2022/09/27 08:18:20;;;;;;;4.47;1.70;;;;;;;13.28;100.00;98891.84;5054432;28;20506;-69
2022/09/27 08:20:47;;;;;;;7.50;1.90;;;;;;;13.32;100.00;98894.59;5054109;28;21009;-69
2022/09/27 08:23:13;;;;;;;3.97;1.50;;;;;;;13.29;100.00;98893.41;5054451;28;20482;-69
2022/09/27 08:25:40;;;;;;;7.97;1.87;;;;;;;13.30;100.00;98894.19;5053412;28;20438;-69
2022/09/27 08:28:09;;;;;;;5.37;2.03;;;;;;;13.23;100.00;98894.03;5053881;28;20557;-68
2022/09/27 08:30:37;;;;;;;4.83;1.67;;;;;;;13.22;100.00;98895.16;5054224;28;20438;-68
2022/09/27 08:33:03;;;;;;;4.60;1.83;;;;;;;13.29;100.00;98893.41;5054157;28;20439;-68
2022/09/27 08:35:32;;;;;;;3.97;1.57;;;;;;;13.27;100.00;98894.91;5054002;28;20446;-69
2022/09/27 08:38:00;;;;;;;5.60;1.90;;;;;;;13.32;100.00;98892.66;5054027;28;20510;-69
2022/09/27 08:40:37;;;;;;;4.73;1.70;;;;;;;13.30;100.00;98896.91;5053958;28;20458;-68
2022/09/27 08:43:16;;;;;;;4.10;1.37;;;;;;;13.31;100.00;98896.53;5053978;28;20466;-69
2022/09/27 08:45:55;;;;;;;4.43;1.70;;;;;;;13.31;100.00;98893.81;5053882;28;20441;-68
2022/09/27 08:48:27;;;;;;;4.40;1.40;;;;;;;13.43;100.00;98897.53;5053858;28;20466;-68
2022/09/27 08:50:55;;;;;;;5.27;1.57;;;;;;;13.41;100.00;98897.09;5053896;28;20427;-68
2022/09/27 08:53:26;;;;;;;4.10;1.70;;;;;;;13.41;100.00;98894.38;5053880;28;20434;-71
2022/09/27 08:55:54;;;;;;;4.07;1.40;;;;;;;13.44;100.00;98896.38;5053424;28;20802;-69
2022/09/27 08:58:26;;;;;;;6.73;1.90;;;;;;;13.36;100.00;98900.91;5053268;28;20473;-68
2022/09/27 09:00:55;;;;;;;4.67;1.30;;;;;;;13.46;100.00;98905.75;5053637;28;20427;-68
2022/09/27 09:03:25;;;;;;;4.50;1.63;;;;;;;13.51;100.00;98900.03;5053511;28;20607;-68
2022/09/27 09:06:04;;;;;;;4.73;1.50;;;;;;;13.58;100.00;98902.06;5053612;28;20457;-68
2022/09/27 09:08:39;;;;;;;3.97;1.37;;;;;;;13.58;100.00;98907.50;5053506;28;20462;-69
2022/09/27 09:14:17;;;;;;;4.43;1.70;;;;;;;13.82;100.00;98893.53;5053451;28;20540;-69
2022/09/27 09:16:51;;;;;;;4.67;1.50;;;;;;;14.00;100.00;98893.03;5055358;28;21018;-69
2022/09/27 09:19:36;;;;;;;4.20;1.70;;;;;;;14.10;100.00;98890.47;5070628;28;20535;-68
2022/09/27 09:22:14;;;;;;;5.10;2.27;;;;;;;14.05;100.00;98895.44;5073436;28;20431;-69
2022/09/27 09:24:56;;;;;;;4.33;1.60;;;;;;;14.07;100.00;98901.31;5053430;28;20446;-68
2022/09/27 09:27:31;;;;;;;4.37;1.67;;;;;;;14.07;100.00;98898.56;5052963;28;21013;-69
2022/09/27 09:30:22;;;;;;;5.20;1.80;;;;;;;13.99;99.23;98894.16;5053376;28;20438;-69
2022/09/27 09:33:02;;;;;;;6.90;1.40;;;;;;;14.01;100.00;98895.38;5052981;28;20433;-69
2022/09/27 09:35:36;;;;;;;5.17;2.20;;;;;;;14.12;100.00;98890.09;5052818;28;20437;-68
2022/09/27 09:38:09;;;;;;;4.80;1.87;;;;;;;14.23;100.00;98891.06;5053123;28;20901;-69
2022/09/27 09:40:41;;;;;;;3.83;1.37;;;;;;;14.38;100.00;98892.81;5053165;28;20431;-68
2022/09/27 09:43:15;;;;;;;7.00;1.53;;;;;;;14.42;98.30;98887.41;5053025;28;20462;-69
2022/09/27 09:45:48;;;;;;;4.23;1.70;;;;;;;14.34;97.90;98897.44;5052939;28;20801;-69
2022/09/27 09:48:19;;;;;;;4.03;1.57;;;;;;;14.42;98.64;98894.81;5052702;28;20462;-69
2022/09/27 09:50:49;;;;;;;5.40;1.63;;;;;;;14.53;99.18;98893.06;5053080;28;20431;-69
2022/09/27 09:53:19;;;;;;;4.70;1.57;;;;;;;14.58;97.19;98906.34;5053038;28;20449;-69
2022/09/27 09:55:52;;;;;;;4.13;1.33;;;;;;;14.65;97.88;98895.53;5052651;28;20430;-69
2022/09/27 09:58:24;;;;;;;3.77;1.40;;;;;;;14.57;95.82;98899.34;5052539;28;21019;-69
2022/09/27 10:00:58;;;;;;;4.10;1.60;;;;;;;14.55;97.46;98896.97;5052959;28;20430;-69
2022/09/27 10:03:24;;;;;;;5.77;1.90;;;;;;;14.60;97.59;98896.66;5052665;28;20470;-69
2022/09/27 10:05:51;;;;;;;5.93;2.03;;;;;;;14.64;98.26;98883.06;5052977;28;20446;-69
2022/09/27 10:08:19;;;;;;;6.20;2.10;;;;;;;14.66;97.36;98885.44;5052466;28;20467;-68
2022/09/27 10:10:46;;;;;;;4.10;1.73;;;;;;;14.63;97.33;98884.22;5052587;28;20453;-68
2022/09/27 10:13:16;;;;;;;4.90;1.87;;;;;;;14.55;95.45;98888.00;5052859;28;20438;-69
2022/09/27 10:15:48;;;;;;;4.03;1.57;;;;;;;14.50;97.24;98872.78;5052646;28;20454;-68
2022/09/27 10:18:18;;;;;;;3.90;1.53;;;;;;;14.55;97.19;98874.38;5052812;28;20466;-70
2022/09/27 10:20:50;;;;;;;4.03;1.60;;;;;;;14.66;96.71;98877.28;5052859;28;20442;-69
2022/09/27 10:23:20;;;;;;;4.90;1.63;;;;;;;14.77;95.99;98875.44;5052676;28;20474;-69
2022/09/27 10:25:50;;;;;;;5.80;2.03;;;;;;;14.93;97.39;98867.06;5052663;28;20450;-68
2022/09/27 10:28:31;;;;;;;4.80;1.87;;;;;;;15.02;94.66;98873.03;5052279;28;20462;-68
2022/09/27 10:31:00;;;;;;;4.57;2.10;;;;;;;15.01;94.15;98868.72;5052759;28;20467;-69
2022/09/27 10:33:30;;;;;;;4.20;1.50;;;;;;;14.95;92.39;98864.75;5052743;28;20452;-68
2022/09/27 10:35:57;;;;;;;4.20;1.60;;;;;;;14.99;93.03;98871.03;5052639;28;20450;-69
2022/09/27 10:38:27;;;;;;;4.83;1.83;;;;;;;15.01;96.04;98874.97;5052486;28;20461;-68
2022/09/27 10:40:55;;;;;;;3.80;1.40;;;;;;;15.06;93.76;98882.81;5052583;28;20454;-71
2022/09/27 10:43:25;;;;;;;4.23;1.63;;;;;;;15.06;92.13;98882.81;5052321;28;20999;-68
2022/09/27 10:46:14;;;;;;;4.63;2.00;;;;;;;15.03;91.94;98877.31;5052261;28;20891;-69
2022/09/27 10:48:43;;;;;;;3.70;1.17;;;;;;;15.06;94.36;98865.66;5051439;28;20537;-70
2022/09/27 10:51:24;;;;;;;4.37;1.83;;;;;;;15.17;95.48;98871.22;5056118;28;20446;-70
2022/09/27 10:53:51;;;;;;;4.10;1.60;;;;;;;15.26;90.08;98869.75;5056174;28;20423;-70
2022/09/27 10:56:28;;;;;;;4.40;1.70;;;;;;;15.45;91.23;98876.16;5056034;28;20442;-70
2022/09/27 10:58:55;;;;;;;3.80;1.47;;;;;;;15.67;89.96;98866.25;5056091;28;20422;-70
2022/09/27 11:01:23;;;;;;;4.40;1.37;;;;;;;16.06;90.19;98872.81;5055648;28;20457;-70
2022/09/27 11:03:54;;;;;;;5.67;1.73;;;;;;;16.15;86.02;98865.06;5055845;28;20478;-68
2022/09/27 11:06:29;;;;;;;3.90;1.37;;;;;;;16.23;85.63;98871.34;5055851;28;20427;-71
2022/09/27 11:09:10;;;;;;;3.83;1.13;;;;;;;16.11;86.86;98883.41;5055804;28;20434;-70
2022/09/27 11:11:37;;;;;;;4.40;1.47;;;;;;;16.03;87.61;98872.81;5055567;28;20882;-70
2022/09/27 11:14:06;;;;;;;4.40;0.90;;;;;;;15.99;86.64;98872.00;5055803;28;20442;-70
2022/09/27 11:16:51;;;;;;;3.77;1.53;;;;;;;16.02;84.63;98871.22;5055265;28;20484;-70
2022/09/27 11:19:35;;;;;;;3.90;1.17;;;;;;;16.25;83.05;98874.50;5055620;28;20429;-70
2022/09/27 11:22:16;;;;;;;3.80;1.30;;;;;;;16.33;83.86;98865.16;5055649;28;20453;-70
2022/09/27 11:24:59;;;;;;;3.67;1.30;;;;;;;16.18;82.44;98876.41;5055227;28;21009;-70
2022/09/27 11:27:37;;;;;;;3.20;0.80;;;;;;;15.82;83.43;98901.50;5055380;28;20470;-70
2022/09/27 11:30:08;;;;;;;2.90;0.60;;;;;;;15.37;76.48;98897.16;5055636;28;20433;-70
2022/09/27 11:32:54;;;;;;;3.43;0.50;;;;;;;14.93;79.81;98908.75;5055522;28;20465;-72
2022/09/27 11:35:40;;;;;;;4.40;0.60;;;;;;;14.32;87.19;98909.84;5055490;28;20429;-68
2022/09/27 11:38:17;;;;;;;3.17;0.50;;;;;;;13.80;91.20;98906.72;5055234;28;20982;-71
2022/09/27 11:41:03;;;;;;;2.70;0.40;;;;;;;13.16;95.80;98927.31;5055257;28;20430;-70
2022/09/27 11:43:41;;;;;;;3.00;0.70;;;;;;;12.95;99.11;98924.94;5055095;28;20474;-71
2022/09/27 11:46:17;;;;;;;3.10;0.40;;;;;;;12.79;100.00;98925.03;5053922;28;20930;-72
2022/09/27 11:48:59;;;;;;;2.80;0.50;;;;;;;12.71;100.00;98927.94;5070784;28;20453;-71
2022/09/27 11:51:49;;;;;;;3.77;0.60;;;;;;;12.54;100.00;98912.84;5069995;28;20449;-70